Airfield :
LOGIN :

Register | Disclaimer

   EN    FR    IT 

 










Legend :    VFR   Marginal VFR   IFR   Intensive IFR   Very Intensive IFR
Visi :
Ceiling :
>= 8 km
>= 3000ft
5 to 8 km
1000 to 3000 ft
1500m to 5 km
500 to 1000 ft
800 to 1500m
200 to 500 ft
< 800m
< 200 ft
Symbols :   Thunderstorms  Fog  Heavy snow  Heavy precipitations  Wind > 20 kt
SIGMETs :     Misc.  Thunderstorms  Icing  Turbulence  Mountain Waves  Volcanic Ashes






- Airport Elevation : 526 ft
- IATA code : LTN


EGGW - London Luton

CURRENT METAR :
  • 180520Z AUTO VRB02KT 9999 -RA SCT005/// BKN012/// BKN021/// //////TCU 09/09 Q0996

EXPIRED METARs :
  • 180450Z AUTO VRB03KT 7000 -RA SCT006/// SCT012/// BKN023/// //////TCU 09/09 Q0996
  • 180420Z AUTO 21007KT 9999 -RA BKN006/// BKN029/// //////CB 09/09 Q0997
  • 180350Z AUTO 17008KT 140V200 9999 BKN005/// //////TCU 09/08 Q0997
  • 180320Z AUTO 17007KT 140V220 9999 SCT006 09/08 Q0997
  • 180250Z AUTO 17008KT 130V220 9999 -RA //////TCU 09/08 Q0997

TAF TAF EGGW
Valid from the 18 at 06:00 until the 19 at 06:00 UTC


180506Z 1806/1906 23009KT 9999 SCT025
TEMPO 1811/1821 7000 SHRA
TEMPO 1812/1818 22018G28KT
PROB30
TEMPO 1812/1818 4000 +SHRA BKN012 BKN020CB
PROB40 1901/1906 7000
ATIS : +44 1582 395 204



MET'MAP, your aeronautical weather chart ! - Copyright ORBIFLY December 2007 - Disclaimer

ORBIFLY MET'MAP TEAM :

Programming & Development : Alexandra Zaïnal
Concept & Development : Baudouin d'Aumeries
Co-Development & Prog : Marc-Olivier Méhu
Technical & hardware support : Manuel Goepfert

Contact : metmap@orbifly.com




SOURCES & CREDITS :

   NOAA